sensor_id;sensor_type;location;lat;lon;timestamp;temperature;humidity
52565;DHT22;38460;53.106;7.004;2022-07-05T00:01:51;14.10;99.90
52565;DHT22;38460;53.106;7.004;2022-07-05T00:04:17;14.10;99.90
52565;DHT22;38460;53.106;7.004;2022-07-05T00:06:43;14.10;99.90
52565;DHT22;38460;53.106;7.004;2022-07-05T00:09:27;14.00;99.90
52565;DHT22;38460;53.106;7.004;2022-07-05T00:11:53;14.00;99.90
52565;DHT22;38460;53.106;7.004;2022-07-05T00:14:19;14.00;99.90
52565;DHT22;38460;53.106;7.004;2022-07-05T00:16:45;14.00;99.90
52565;DHT22;38460;53.106;7.004;2022-07-05T00:19:11;14.00;99.90
52565;DHT22;38460;53.106;7.004;2022-07-05T00:21:37;13.90;99.90
52565;DHT22;38460;53.106;7.004;2022-07-05T00:24:03;13.90;99.90
52565;DHT22;38460;53.106;7.004;2022-07-05T00:26:28;13.90;99.90
52565;DHT22;38460;53.106;7.004;2022-07-05T00:28:54;13.80;99.90
52565;DHT22;38460;53.106;7.004;2022-07-05T00:31:20;13.70;99.90
52565;DHT22;38460;53.106;7.004;2022-07-05T00:33:45;13.80;99.90
52565;DHT22;38460;53.106;7.004;2022-07-05T00:36:11;13.70;99.90
52565;DHT22;38460;53.106;7.004;2022-07-05T00:38:37;13.70;99.90
52565;DHT22;38460;53.106;7.004;2022-07-05T00:41:03;13.70;99.90
52565;DHT22;38460;53.106;7.004;2022-07-05T00:43:29;13.70;99.90
52565;DHT22;38460;53.106;7.004;2022-07-05T00:45:54;13.70;99.90
52565;DHT22;38460;53.106;7.004;2022-07-05T00:48:20;13.70;99.90
52565;DHT22;38460;53.106;7.004;2022-07-05T00:50:50;13.70;99.90
52565;DHT22;38460;53.106;7.004;2022-07-05T00:53:16;13.60;99.90
52565;DHT22;38460;53.106;7.004;2022-07-05T00:55:44;13.60;99.90
52565;DHT22;38460;53.106;7.004;2022-07-05T00:58:10;13.50;99.90
52565;DHT22;38460;53.106;7.004;2022-07-05T01:00:37;13.50;99.90
52565;DHT22;38460;53.106;7.004;2022-07-05T01:03:03;13.50;99.90
52565;DHT22;38460;53.106;7.004;2022-07-05T01:05:29;13.40;99.90
52565;DHT22;38460;53.106;7.004;2022-07-05T01:07:56;13.40;99.90
52565;DHT22;38460;53.106;7.004;2022-07-05T01:10:22;13.40;99.90
52565;DHT22;38460;53.106;7.004;2022-07-05T01:12:48;13.40;99.90
52565;DHT22;38460;53.106;7.004;2022-07-05T01:15:13;13.40;99.90
52565;DHT22;38460;53.106;7.004;2022-07-05T01:17:40;13.40;99.90
52565;DHT22;38460;53.106;7.004;2022-07-05T01:20:07;13.30;99.90
52565;DHT22;38460;53.106;7.004;2022-07-05T01:22:56;13.30;99.90
52565;DHT22;38460;53.106;7.004;2022-07-05T01:25:24;13.20;99.90
52565;DHT22;38460;53.106;7.004;2022-07-05T01:27:50;13.20;99.90
52565;DHT22;38460;53.106;7.004;2022-07-05T01:30:16;13.20;99.90
52565;DHT22;38460;53.106;7.004;2022-07-05T01:32:43;13.10;99.90
52565;DHT22;38460;53.106;7.004;2022-07-05T01:35:10;13.10;99.90
52565;DHT22;38460;53.106;7.004;2022-07-05T01:37:37;13.10;99.90
52565;DHT22;38460;53.106;7.004;2022-07-05T01:40:04;13.10;99.90
52565;DHT22;38460;53.106;7.004;2022-07-05T01:42:30;13.10;99.90
52565;DHT22;38460;53.106;7.004;2022-07-05T01:44:56;13.00;99.90
52565;DHT22;38460;53.106;7.004;2022-07-05T01:47:22;13.00;99.90
52565;DHT22;38460;53.106;7.004;2022-07-05T01:49:52;13.00;99.90
52565;DHT22;38460;53.106;7.004;2022-07-05T01:52:21;13.00;99.90
52565;DHT22;38460;53.106;7.004;2022-07-05T01:54:47;12.90;99.90
52565;DHT22;38460;53.106;7.004;2022-07-05T01:57:13;12.90;99.90
52565;DHT22;38460;53.106;7.004;2022-07-05T01:59:40;12.90;99.90
52565;DHT22;38460;53.106;7.004;2022-07-05T02:02:07;12.80;99.90
52565;DHT22;38460;53.106;7.004;2022-07-05T02:04:34;12.80;99.90
52565;DHT22;38460;53.106;7.004;2022-07-05T02:07:04;12.80;99.90
52565;DHT22;38460;53.106;7.004;2022-07-05T02:09:30;12.80;99.90
52565;DHT22;38460;53.106;7.004;2022-07-05T02:11:55;12.70;99.90
52565;DHT22;38460;53.106;7.004;2022-07-05T02:14:21;12.70;99.90
52565;DHT22;38460;53.106;7.004;2022-07-05T02:16:47;12.70;99.90
52565;DHT22;38460;53.106;7.004;2022-07-05T02:19:13;12.70;99.90
52565;DHT22;38460;53.106;7.004;2022-07-05T02:21:39;12.70;99.90
52565;DHT22;38460;53.106;7.004;2022-07-05T02:24:05;12.70;99.90
52565;DHT22;38460;53.106;7.004;2022-07-05T02:26:31;12.70;99.90
52565;DHT22;38460;53.106;7.004;2022-07-05T02:28:56;12.70;99.90
52565;DHT22;38460;53.106;7.004;2022-07-05T02:31:22;12.70;99.90
52565;DHT22;38460;53.106;7.004;2022-07-05T02:33:48;12.60;99.90
52565;DHT22;38460;53.106;7.004;2022-07-05T02:36:14;12.60;99.90
52565;DHT22;38460;53.106;7.004;2022-07-05T02:38:40;12.60;99.90
52565;DHT22;38460;53.106;7.004;2022-07-05T02:41:07;12.60;99.90
52565;DHT22;38460;53.106;7.004;2022-07-05T02:43:36;12.60;99.90
52565;DHT22;38460;53.106;7.004;2022-07-05T02:46:03;12.60;99.90
52565;DHT22;38460;53.106;7.004;2022-07-05T02:48:29;12.60;99.90
52565;DHT22;38460;53.106;7.004;2022-07-05T02:50:55;12.50;99.90
52565;DHT22;38460;53.106;7.004;2022-07-05T02:53:21;12.50;99.90
52565;DHT22;38460;53.106;7.004;2022-07-05T02:55:47;12.50;99.90
52565;DHT22;38460;53.106;7.004;2022-07-05T02:58:12;12.40;99.90
52565;DHT22;38460;53.106;7.004;2022-07-05T03:00:38;12.40;99.90
52565;DHT22;38460;53.106;7.004;2022-07-05T03:03:04;12.40;99.90
52565;DHT22;38460;53.106;7.004;2022-07-05T03:05:30;12.40;99.90
52565;DHT22;38460;53.106;7.004;2022-07-05T03:07:55;12.30;99.90
52565;DHT22;38460;53.106;7.004;2022-07-05T03:10:21;12.30;99.90
52565;DHT22;38460;53.106;7.004;2022-07-05T03:12:47;12.30;99.90
52565;DHT22;38460;53.106;7.004;2022-07-05T03:15:12;12.20;99.90
52565;DHT22;38460;53.106;7.004;2022-07-05T03:17:38;12.20;99.90
52565;DHT22;38460;53.106;7.004;2022-07-05T03:20:04;12.20;99.90
52565;DHT22;38460;53.106;7.004;2022-07-05T03:22:30;12.10;99.90
52565;DHT22;38460;53.106;7.004;2022-07-05T03:24:56;12.10;99.90
52565;DHT22;38460;53.106;7.004;2022-07-05T03:27:22;12.10;99.90
52565;DHT22;38460;53.106;7.004;2022-07-05T03:29:47;12.00;99.90
52565;DHT22;38460;53.106;7.004;2022-07-05T03:32:15;12.00;99.90
52565;DHT22;38460;53.106;7.004;2022-07-05T03:34:41;12.00;99.90
52565;DHT22;38460;53.106;7.004;2022-07-05T03:37:07;12.00;99.90
52565;DHT22;38460;53.106;7.004;2022-07-05T03:39:32;12.00;99.90
52565;DHT22;38460;53.106;7.004;2022-07-05T03:41:58;12.00;99.90
52565;DHT22;38460;53.106;7.004;2022-07-05T03:44:24;12.00;99.90
52565;DHT22;38460;53.106;7.004;2022-07-05T03:46:49;12.00;99.90
52565;DHT22;38460;53.106;7.004;2022-07-05T03:49:15;12.00;99.90
52565;DHT22;38460;53.106;7.004;2022-07-05T03:51:41;12.00;99.90
52565;DHT22;38460;53.106;7.004;2022-07-05T03:54:06;12.00;99.90
52565;DHT22;38460;53.106;7.004;2022-07-05T03:56:32;12.00;99.90
52565;DHT22;38460;53.106;7.004;2022-07-05T03:58:58;12.00;99.90
52565;DHT22;38460;53.106;7.004;2022-07-05T04:01:24;12.00;99.90
52565;DHT22;38460;53.106;7.004;2022-07-05T04:03:49;12.00;99.90
52565;DHT22;38460;53.106;7.004;2022-07-05T04:06:15;12.00;99.90
52565;DHT22;38460;53.106;7.004;2022-07-05T04:08:41;12.00;99.90
52565;DHT22;38460;53.106;7.004;2022-07-05T04:11:06;12.00;99.90
52565;DHT22;38460;53.106;7.004;2022-07-05T04:13:34;12.00;99.90
52565;DHT22;38460;53.106;7.004;2022-07-05T04:16:00;12.00;99.90
52565;DHT22;38460;53.106;7.004;2022-07-05T04:18:26;12.10;99.90
52565;DHT22;38460;53.106;7.004;2022-07-05T04:20:52;12.00;99.90
52565;DHT22;38460;53.106;7.004;2022-07-05T04:23:17;12.10;99.90
52565;DHT22;38460;53.106;7.004;2022-07-05T04:25:43;12.10;99.90
52565;DHT22;38460;53.106;7.004;2022-07-05T04:28:09;12.10;99.90
52565;DHT22;38460;53.106;7.004;2022-07-05T04:30:35;12.10;99.90
52565;DHT22;38460;53.106;7.004;2022-07-05T04:33:00;12.10;99.90
52565;DHT22;38460;53.106;7.004;2022-07-05T04:35:26;12.10;99.90
52565;DHT22;38460;53.106;7.004;2022-07-05T04:37:52;12.20;99.90
52565;DHT22;38460;53.106;7.004;2022-07-05T04:40:17;12.20;99.90
52565;DHT22;38460;53.106;7.004;2022-07-05T04:42:43;12.20;99.90
52565;DHT22;38460;53.106;7.004;2022-07-05T04:45:09;12.20;99.90
52565;DHT22;38460;53.106;7.004;2022-07-05T04:47:35;12.30;99.90
52565;DHT22;38460;53.106;7.004;2022-07-05T04:50:02;12.30;99.90
52565;DHT22;38460;53.106;7.004;2022-07-05T04:52:28;12.30;99.90
52565;DHT22;38460;53.106;7.004;2022-07-05T04:54:53;12.40;99.90
52565;DHT22;38460;53.106;7.004;2022-07-05T04:57:19;12.40;99.90
52565;DHT22;38460;53.106;7.004;2022-07-05T04:59:45;12.50;99.90
52565;DHT22;38460;53.106;7.004;2022-07-05T05:02:11;12.50;99.90
52565;DHT22;38460;53.106;7.004;2022-07-05T05:04:37;12.50;99.90
52565;DHT22;38460;53.106;7.004;2022-07-05T05:07:03;12.60;99.90
52565;DHT22;38460;53.106;7.004;2022-07-05T05:09:29;12.70;99.90
52565;DHT22;38460;53.106;7.004;2022-07-05T05:11:55;12.70;99.90
52565;DHT22;38460;53.106;7.004;2022-07-05T05:14:20;12.70;99.90
52565;DHT22;38460;53.106;7.004;2022-07-05T05:16:46;12.80;99.90
52565;DHT22;38460;53.106;7.004;2022-07-05T05:19:12;12.90;99.90
52565;DHT22;38460;53.106;7.004;2022-07-05T05:21:38;13.00;99.90
52565;DHT22;38460;53.106;7.004;2022-07-05T05:24:04;13.00;99.90
52565;DHT22;38460;53.106;7.004;2022-07-05T05:26:30;13.00;99.90
52565;DHT22;38460;53.106;7.004;2022-07-05T05:28:56;13.10;99.90
52565;DHT22;38460;53.106;7.004;2022-07-05T05:31:21;13.20;99.90
52565;DHT22;38460;53.106;7.004;2022-07-05T05:33:47;13.30;99.90
52565;DHT22;38460;53.106;7.004;2022-07-05T05:36:13;13.30;99.90
52565;DHT22;38460;53.106;7.004;2022-07-05T05:38:38;13.40;99.90
52565;DHT22;38460;53.106;7.004;2022-07-05T05:41:04;13.50;99.90
52565;DHT22;38460;53.106;7.004;2022-07-05T05:43:30;13.60;99.90
52565;DHT22;38460;53.106;7.004;2022-07-05T05:45:56;13.70;99.90
52565;DHT22;38460;53.106;7.004;2022-07-05T05:48:21;13.70;99.90
52565;DHT22;38460;53.106;7.004;2022-07-05T05:50:48;13.80;99.90
52565;DHT22;38460;53.106;7.004;2022-07-05T05:53:14;13.90;99.90
52565;DHT22;38460;53.106;7.004;2022-07-05T05:55:40;14.00;99.90
52565;DHT22;38460;53.106;7.004;2022-07-05T05:58:18;14.10;99.90
52565;DHT22;38460;53.106;7.004;2022-07-05T06:00:44;14.20;99.90
52565;DHT22;38460;53.106;7.004;2022-07-05T06:03:15;14.30;99.90
52565;DHT22;38460;53.106;7.004;2022-07-05T06:05:41;14.40;99.90
52565;DHT22;38460;53.106;7.004;2022-07-05T06:08:07;14.50;99.90
52565;DHT22;38460;53.106;7.004;2022-07-05T06:10:34;14.60;99.90
52565;DHT22;38460;53.106;7.004;2022-07-05T06:13:02;14.70;99.90
52565;DHT22;38460;53.106;7.004;2022-07-05T06:15:28;14.70;99.90
52565;DHT22;38460;53.106;7.004;2022-07-05T06:17:55;14.80;99.90
52565;DHT22;38460;53.106;7.004;2022-07-05T06:20:22;14.90;99.90
52565;DHT22;38460;53.106;7.004;2022-07-05T06:22:50;15.00;99.90
52565;DHT22;38460;53.106;7.004;2022-07-05T06:25:16;15.00;99.90
52565;DHT22;38460;53.106;7.004;2022-07-05T06:27:44;15.00;99.90
52565;DHT22;38460;53.106;7.004;2022-07-05T06:30:12;15.10;99.90
52565;DHT22;38460;53.106;7.004;2022-07-05T06:32:38;15.10;99.90
52565;DHT22;38460;53.106;7.004;2022-07-05T06:35:04;15.20;99.90
52565;DHT22;38460;53.106;7.004;2022-07-05T06:40:27;15.30;99.90
52565;DHT22;38460;53.106;7.004;2022-07-05T06:42:55;15.40;99.90
52565;DHT22;38460;53.106;7.004;2022-07-05T06:45:22;15.50;99.90
52565;DHT22;38460;53.106;7.004;2022-07-05T06:48:03;15.50;99.90
52565;DHT22;38460;53.106;7.004;2022-07-05T06:50:33;15.60;99.90
52565;DHT22;38460;53.106;7.004;2022-07-05T06:53:01;15.60;99.90
52565;DHT22;38460;53.106;7.004;2022-07-05T06:55:27;15.70;99.90
52565;DHT22;38460;53.106;7.004;2022-07-05T06:58:05;15.80;99.90
52565;DHT22;38460;53.106;7.004;2022-07-05T07:00:31;15.90;99.90
52565;DHT22;38460;53.106;7.004;2022-07-05T07:02:58;16.00;99.90
52565;DHT22;38460;53.106;7.004;2022-07-05T07:05:24;16.10;99.90
52565;DHT22;38460;53.106;7.004;2022-07-05T07:07:50;16.20;99.90
52565;DHT22;38460;53.106;7.004;2022-07-05T07:10:34;16.20;99.90
52565;DHT22;38460;53.106;7.004;2022-07-05T07:13:00;16.30;99.90
52565;DHT22;38460;53.106;7.004;2022-07-05T07:15:27;16.40;99.90
52565;DHT22;38460;53.106;7.004;2022-07-05T07:17:53;16.40;99.90
52565;DHT22;38460;53.106;7.004;2022-07-05T07:20:19;16.50;99.90
52565;DHT22;38460;53.106;7.004;2022-07-05T07:22:45;16.50;99.90
52565;DHT22;38460;53.106;7.004;2022-07-05T07:25:11;16.60;99.90
52565;DHT22;38460;53.106;7.004;2022-07-05T07:27:50;16.60;99.90
52565;DHT22;38460;53.106;7.004;2022-07-05T07:30:21;16.70;99.90
52565;DHT22;38460;53.106;7.004;2022-07-05T07:32:47;16.80;99.90
52565;DHT22;38460;53.106;7.004;2022-07-05T07:35:14;16.80;99.90
52565;DHT22;38460;53.106;7.004;2022-07-05T07:37:40;16.90;99.90
52565;DHT22;38460;53.106;7.004;2022-07-05T07:40:07;16.90;99.90
52565;DHT22;38460;53.106;7.004;2022-07-05T07:42:33;17.00;99.90
52565;DHT22;38460;53.106;7.004;2022-07-05T07:44:59;17.10;99.90
52565;DHT22;38460;53.106;7.004;2022-07-05T07:47:30;17.20;99.90
52565;DHT22;38460;53.106;7.004;2022-07-05T07:49:56;17.20;99.90
52565;DHT22;38460;53.106;7.004;2022-07-05T07:52:21;17.30;99.90
52565;DHT22;38460;53.106;7.004;2022-07-05T07:54:47;17.20;99.90
52565;DHT22;38460;53.106;7.004;2022-07-05T07:57:13;17.20;99.90
52565;DHT22;38460;53.106;7.004;2022-07-05T07:59:38;17.10;99.90
52565;DHT22;38460;53.106;7.004;2022-07-05T08:02:04;17.10;99.90
52565;DHT22;38460;53.106;7.004;2022-07-05T08:04:30;17.20;99.90
52565;DHT22;38460;53.106;7.004;2022-07-05T08:06:56;17.20;99.90
52565;DHT22;38460;53.106;7.004;2022-07-05T08:09:22;17.20;99.90
52565;DHT22;38460;53.106;7.004;2022-07-05T08:11:47;17.20;99.90
52565;DHT22;38460;53.106;7.004;2022-07-05T08:14:17;17.20;99.90
52565;DHT22;38460;53.106;7.004;2022-07-05T08:16:46;17.30;99.90
52565;DHT22;38460;53.106;7.004;2022-07-05T08:19:12;17.40;99.90
52565;DHT22;38460;53.106;7.004;2022-07-05T08:21:57;17.60;99.90
52565;DHT22;38460;53.106;7.004;2022-07-05T08:24:22;17.70;99.90
52565;DHT22;38460;53.106;7.004;2022-07-05T08:26:48;17.70;99.90
52565;DHT22;38460;53.106;7.004;2022-07-05T08:29:14;17.70;99.90
52565;DHT22;38460;53.106;7.004;2022-07-05T08:31:43;17.70;99.90
52565;DHT22;38460;53.106;7.004;2022-07-05T08:34:09;17.70;99.90
52565;DHT22;38460;53.106;7.004;2022-07-05T08:36:35;17.70;99.90
52565;DHT22;38460;53.106;7.004;2022-07-05T08:39:01;17.80;99.90
52565;DHT22;38460;53.106;7.004;2022-07-05T08:41:28;18.00;99.90
52565;DHT22;38460;53.106;7.004;2022-07-05T08:43:56;18.20;99.90
52565;DHT22;38460;53.106;7.004;2022-07-05T08:46:25;18.30;99.90
52565;DHT22;38460;53.106;7.004;2022-07-05T08:48:51;18.30;99.90
52565;DHT22;38460;53.106;7.004;2022-07-05T08:51:19;18.20;99.90
52565;DHT22;38460;53.106;7.004;2022-07-05T08:53:48;18.20;99.90
52565;DHT22;38460;53.106;7.004;2022-07-05T08:56:14;18.10;99.90
52565;DHT22;38460;53.106;7.004;2022-07-05T08:58:41;18.00;99.90
52565;DHT22;38460;53.106;7.004;2022-07-05T09:01:08;18.00;99.90
52565;DHT22;38460;53.106;7.004;2022-07-05T09:03:39;18.00;99.90
52565;DHT22;38460;53.106;7.004;2022-07-05T09:06:09;17.90;99.90
52565;DHT22;38460;53.106;7.004;2022-07-05T09:08:37;17.90;99.90
52565;DHT22;38460;53.106;7.004;2022-07-05T09:11:27;18.00;99.90
52565;DHT22;38460;53.106;7.004;2022-07-05T09:13:53;18.10;99.90
52565;DHT22;38460;53.106;7.004;2022-07-05T09:16:19;18.20;99.90
52565;DHT22;38460;53.106;7.004;2022-07-05T09:18:50;18.30;99.90
52565;DHT22;38460;53.106;7.004;2022-07-05T09:21:21;18.40;99.90
52565;DHT22;38460;53.106;7.004;2022-07-05T09:23:57;18.40;99.90
52565;DHT22;38460;53.106;7.004;2022-07-05T09:26:39;18.60;99.90
52565;DHT22;38460;53.106;7.004;2022-07-05T09:29:07;18.60;99.90
52565;DHT22;38460;53.106;7.004;2022-07-05T09:31:40;18.60;99.90
52565;DHT22;38460;53.106;7.004;2022-07-05T09:34:10;18.60;99.90
52565;DHT22;38460;53.106;7.004;2022-07-05T09:44:48;18.40;99.90
52565;DHT22;38460;53.106;7.004;2022-07-05T09:47:16;18.50;99.90
52565;DHT22;38460;53.106;7.004;2022-07-05T09:49:44;18.50;99.90
52565;DHT22;38460;53.106;7.004;2022-07-05T09:52:12;18.60;99.90
52565;DHT22;38460;53.106;7.004;2022-07-05T09:55:06;18.80;99.90
52565;DHT22;38460;53.106;7.004;2022-07-05T09:57:33;18.90;99.90
52565;DHT22;38460;53.106;7.004;2022-07-05T10:02:41;19.10;99.90
52565;DHT22;38460;53.106;7.004;2022-07-05T10:05:33;19.20;99.90
52565;DHT22;38460;53.106;7.004;2022-07-05T10:08:00;19.10;99.00
52565;DHT22;38460;53.106;7.004;2022-07-05T10:10:31;19.10;99.90
52565;DHT22;38460;53.106;7.004;2022-07-05T10:12:58;19.10;99.90
52565;DHT22;38460;53.106;7.004;2022-07-05T10:15:26;19.20;99.90
52565;DHT22;38460;53.106;7.004;2022-07-05T10:18:10;19.20;99.90
52565;DHT22;38460;53.106;7.004;2022-07-05T10:23:04;19.20;99.90
52565;DHT22;38460;53.106;7.004;2022-07-05T10:25:30;19.40;99.90
52565;DHT22;38460;53.106;7.004;2022-07-05T10:27:57;19.50;99.90
52565;DHT22;38460;53.106;7.004;2022-07-05T10:30:24;19.60;99.90
52565;DHT22;38460;53.106;7.004;2022-07-05T10:32:50;19.60;99.90
52565;DHT22;38460;53.106;7.004;2022-07-05T10:35:17;19.70;99.90
52565;DHT22;38460;53.106;7.004;2022-07-05T10:37:44;19.70;99.90
52565;DHT22;38460;53.106;7.004;2022-07-05T10:40:10;19.70;99.90
52565;DHT22;38460;53.106;7.004;2022-07-05T10:42:42;19.70;99.90
52565;DHT22;38460;53.106;7.004;2022-07-05T10:48:15;19.80;99.90
52565;DHT22;38460;53.106;7.004;2022-07-05T10:51:00;20.00;98.70
52565;DHT22;38460;53.106;7.004;2022-07-05T10:58:36;19.90;99.10
52565;DHT22;38460;53.106;7.004;2022-07-05T11:03:40;19.90;99.40
52565;DHT22;38460;53.106;7.004;2022-07-05T11:06:06;19.90;99.40
52565;DHT22;38460;53.106;7.004;2022-07-05T11:11:37;20.00;99.70
52565;DHT22;38460;53.106;7.004;2022-07-05T11:14:04;19.90;99.70
52565;DHT22;38460;53.106;7.004;2022-07-05T11:22:25;20.10;98.70
52565;DHT22;38460;53.106;7.004;2022-07-05T11:24:51;20.20;99.90
52565;DHT22;38460;53.106;7.004;2022-07-05T11:27:17;20.20;99.60
52565;DHT22;38460;53.106;7.004;2022-07-05T11:29:49;20.30;99.50
52565;DHT22;38460;53.106;7.004;2022-07-05T11:34:56;20.50;99.30
52565;DHT22;38460;53.106;7.004;2022-07-05T11:38:06;20.60;98.50
52565;DHT22;38460;53.106;7.004;2022-07-05T11:40:38;20.80;98.70
52565;DHT22;38460;53.106;7.004;2022-07-05T11:43:04;20.90;97.30
52565;DHT22;38460;53.106;7.004;2022-07-05T11:45:32;21.00;97.80
52565;DHT22;38460;53.106;7.004;2022-07-05T11:47:58;21.00;96.50
52565;DHT22;38460;53.106;7.004;2022-07-05T11:50:27;20.90;96.20
52565;DHT22;38460;53.106;7.004;2022-07-05T11:52:53;21.00;96.90
52565;DHT22;38460;53.106;7.004;2022-07-05T11:55:19;21.00;97.10
52565;DHT22;38460;53.106;7.004;2022-07-05T11:57:49;20.90;95.90
52565;DHT22;38460;53.106;7.004;2022-07-05T12:00:26;20.90;95.90
52565;DHT22;38460;53.106;7.004;2022-07-05T12:02:52;20.80;95.70
52565;DHT22;38460;53.106;7.004;2022-07-05T12:05:18;20.80;95.20
52565;DHT22;38460;53.106;7.004;2022-07-05T12:07:49;20.80;96.40
52565;DHT22;38460;53.106;7.004;2022-07-05T12:10:15;20.90;95.70
52565;DHT22;38460;53.106;7.004;2022-07-05T12:13:06;20.70;95.20
52565;DHT22;38460;53.106;7.004;2022-07-05T12:15:32;20.60;95.50
52565;DHT22;38460;53.106;7.004;2022-07-05T12:18:01;20.50;95.90
52565;DHT22;38460;53.106;7.004;2022-07-05T12:20:36;20.40;95.90
52565;DHT22;38460;53.106;7.004;2022-07-05T12:23:02;20.40;96.50
52565;DHT22;38460;53.106;7.004;2022-07-05T12:25:29;20.30;96.20
52565;DHT22;38460;53.106;7.004;2022-07-05T12:27:56;20.30;96.30
52565;DHT22;38460;53.106;7.004;2022-07-05T12:30:23;20.50;96.70
52565;DHT22;38460;53.106;7.004;2022-07-05T12:33:02;20.60;95.70
52565;DHT22;38460;53.106;7.004;2022-07-05T12:40:36;20.70;94.50
52565;DHT22;38460;53.106;7.004;2022-07-05T12:43:05;20.80;94.00
52565;DHT22;38460;53.106;7.004;2022-07-05T12:45:32;20.90;94.20
52565;DHT22;38460;53.106;7.004;2022-07-05T12:48:00;21.00;93.10
52565;DHT22;38460;53.106;7.004;2022-07-05T12:53:12;20.80;94.40
52565;DHT22;38460;53.106;7.004;2022-07-05T12:56:07;20.50;96.00
52565;DHT22;38460;53.106;7.004;2022-07-05T12:59:03;20.30;97.20
52565;DHT22;38460;53.106;7.004;2022-07-05T13:01:38;20.20;97.40
52565;DHT22;38460;53.106;7.004;2022-07-05T13:04:17;20.00;98.20
52565;DHT22;38460;53.106;7.004;2022-07-05T13:06:56;20.00;98.60
52565;DHT22;38460;53.106;7.004;2022-07-05T13:12:09;19.80;98.50
52565;DHT22;38460;53.106;7.004;2022-07-05T13:14:40;20.00;98.50
52565;DHT22;38460;53.106;7.004;2022-07-05T13:17:07;20.00;97.90
52565;DHT22;38460;53.106;7.004;2022-07-05T13:19:33;19.90;98.10
52565;DHT22;38460;53.106;7.004;2022-07-05T13:21:59;20.10;98.20
52565;DHT22;38460;53.106;7.004;2022-07-05T13:24:25;20.30;97.70
52565;DHT22;38460;53.106;7.004;2022-07-05T13:26:51;20.50;96.40
52565;DHT22;38460;53.106;7.004;2022-07-05T13:29:17;20.70;96.30
52565;DHT22;38460;53.106;7.004;2022-07-05T13:31:43;21.00;96.00
52565;DHT22;38460;53.106;7.004;2022-07-05T13:34:09;21.10;95.50
52565;DHT22;38460;53.106;7.004;2022-07-05T13:36:34;21.20;95.20
52565;DHT22;38460;53.106;7.004;2022-07-05T13:39:00;21.50;95.60
52565;DHT22;38460;53.106;7.004;2022-07-05T13:41:26;21.70;95.80
52565;DHT22;38460;53.106;7.004;2022-07-05T13:43:52;21.60;95.20
52565;DHT22;38460;53.106;7.004;2022-07-05T13:46:17;21.60;94.20
52565;DHT22;38460;53.106;7.004;2022-07-05T13:48:43;21.50;94.40
52565;DHT22;38460;53.106;7.004;2022-07-05T13:51:09;21.50;94.90
52565;DHT22;38460;53.106;7.004;2022-07-05T13:53:35;21.30;94.60
52565;DHT22;38460;53.106;7.004;2022-07-05T13:56:04;21.10;94.90
52565;DHT22;38460;53.106;7.004;2022-07-05T13:58:30;21.10;94.60
52565;DHT22;38460;53.106;7.004;2022-07-05T14:00:55;20.90;94.60
52565;DHT22;38460;53.106;7.004;2022-07-05T14:03:21;20.90;94.60
52565;DHT22;38460;53.106;7.004;2022-07-05T14:05:47;21.00;93.90
52565;DHT22;38460;53.106;7.004;2022-07-05T14:08:13;21.10;93.90
52565;DHT22;38460;53.106;7.004;2022-07-05T14:10:39;21.30;93.80
52565;DHT22;38460;53.106;7.004;2022-07-05T14:13:05;21.40;94.00
52565;DHT22;38460;53.106;7.004;2022-07-05T14:15:32;21.60;93.30
52565;DHT22;38460;53.106;7.004;2022-07-05T14:17:58;21.60;93.30
52565;DHT22;38460;53.106;7.004;2022-07-05T14:20:28;21.60;93.10
52565;DHT22;38460;53.106;7.004;2022-07-05T14:22:54;21.60;93.40
52565;DHT22;38460;53.106;7.004;2022-07-05T14:25:19;21.40;93.50
52565;DHT22;38460;53.106;7.004;2022-07-05T14:27:45;21.30;93.70
52565;DHT22;38460;53.106;7.004;2022-07-05T14:30:11;21.30;93.60
52565;DHT22;38460;53.106;7.004;2022-07-05T14:32:37;21.50;93.20
52565;DHT22;38460;53.106;7.004;2022-07-05T14:35:04;21.80;92.50
52565;DHT22;38460;53.106;7.004;2022-07-05T14:37:30;22.00;91.40
52565;DHT22;38460;53.106;7.004;2022-07-05T14:39:56;21.90;91.70
52565;DHT22;38460;53.106;7.004;2022-07-05T14:42:22;21.80;91.90
52565;DHT22;38460;53.106;7.004;2022-07-05T14:44:47;21.70;92.20
52565;DHT22;38460;53.106;7.004;2022-07-05T14:47:13;21.50;91.90
52565;DHT22;38460;53.106;7.004;2022-07-05T14:49:39;21.30;92.10
52565;DHT22;38460;53.106;7.004;2022-07-05T14:52:05;21.10;92.70
52565;DHT22;38460;53.106;7.004;2022-07-05T14:54:31;20.90;92.80
52565;DHT22;38460;53.106;7.004;2022-07-05T14:56:57;20.70;92.70
52565;DHT22;38460;53.106;7.004;2022-07-05T14:59:22;20.50;93.20
52565;DHT22;38460;53.106;7.004;2022-07-05T15:01:48;20.40;93.30
52565;DHT22;38460;53.106;7.004;2022-07-05T15:04:14;20.40;93.40
52565;DHT22;38460;53.106;7.004;2022-07-05T15:06:39;20.50;93.80
52565;DHT22;38460;53.106;7.004;2022-07-05T15:09:06;20.50;93.40
52565;DHT22;38460;53.106;7.004;2022-07-05T15:11:32;20.50;93.60
52565;DHT22;38460;53.106;7.004;2022-07-05T15:13:58;20.30;93.50
52565;DHT22;38460;53.106;7.004;2022-07-05T15:16:26;20.30;93.70
52565;DHT22;38460;53.106;7.004;2022-07-05T15:18:51;20.20;93.90
52565;DHT22;38460;53.106;7.004;2022-07-05T15:21:18;20.10;94.10
52565;DHT22;38460;53.106;7.004;2022-07-05T15:23:44;20.10;93.80
52565;DHT22;38460;53.106;7.004;2022-07-05T15:26:10;20.10;93.50
52565;DHT22;38460;53.106;7.004;2022-07-05T15:28:36;20.10;93.60
52565;DHT22;38460;53.106;7.004;2022-07-05T15:31:02;20.00;93.70
52565;DHT22;38460;53.106;7.004;2022-07-05T15:33:27;20.10;94.00
52565;DHT22;38460;53.106;7.004;2022-07-05T15:35:58;20.30;94.40
52565;DHT22;38460;53.106;7.004;2022-07-05T15:38:25;20.60;94.30
52565;DHT22;38460;53.106;7.004;2022-07-05T15:40:52;21.00;94.10
52565;DHT22;38460;53.106;7.004;2022-07-05T15:43:18;21.20;93.20
52565;DHT22;38460;53.106;7.004;2022-07-05T15:45:45;20.90;93.00
52565;DHT22;38460;53.106;7.004;2022-07-05T15:48:11;20.80;93.00
52565;DHT22;38460;53.106;7.004;2022-07-05T15:50:37;20.80;93.40
52565;DHT22;38460;53.106;7.004;2022-07-05T15:53:03;21.00;93.30
52565;DHT22;38460;53.106;7.004;2022-07-05T15:55:29;20.80;93.00
52565;DHT22;38460;53.106;7.004;2022-07-05T15:57:54;20.60;92.80
52565;DHT22;38460;53.106;7.004;2022-07-05T16:00:20;20.40;92.60
52565;DHT22;38460;53.106;7.004;2022-07-05T16:02:46;20.10;92.80
52565;DHT22;38460;53.106;7.004;2022-07-05T16:05:13;19.90;92.90
52565;DHT22;38460;53.106;7.004;2022-07-05T16:07:38;19.70;93.30
52565;DHT22;38460;53.106;7.004;2022-07-05T16:10:04;19.70;94.00
52565;DHT22;38460;53.106;7.004;2022-07-05T16:12:31;19.80;94.00
52565;DHT22;38460;53.106;7.004;2022-07-05T16:14:57;19.90;94.30
52565;DHT22;38460;53.106;7.004;2022-07-05T16:17:24;20.10;94.40
52565;DHT22;38460;53.106;7.004;2022-07-05T16:19:50;20.20;94.10
52565;DHT22;38460;53.106;7.004;2022-07-05T16:22:16;20.40;94.00